Main page
METAR-TAF:

METAR-TAF

Airports :

Limoges – Bellegarde Airport

Limoges, France

latitude: 45-52N, longitude: 001-11E, elevation: 396 m

Current weather observation

The report was made 26 minutes ago, at 16:00 UTC
Wind 2 kt from variable directions
Temperature 14°C
Humidity 44%
Pressure 1013 hPa
Visibility 10 km or more
no clouds below 1500 m and no cumulonimbus

METAR: LFBL 201600Z AUTO VRB02KT CAVOK 14/02 Q1013 TEMPO SCT050TCU

Time: 18:26 (16:26 UTC)

Forecast

The report was made 5 hours and 26 minutes ago, at 11:00 UTC
Forecast valid from 20 at 12 UTC to 21 at 12 UTC
Wind 4 kt from variable directions
Visibility 10 km or more
no clouds below 1500 m and no cumulonimbus
Temporary
from 20 at 14 UTC to 20 at 20 UTC
Scattered clouds at a height of 5000 ft, Towering cumulus.
Probability 30% :
Temporary
from 20 at 14 UTC to 20 at 18 UTC
light rain showers

TAF: LFBL 201100Z 2012/2112 VRB04KT CAVOK TEMPO 2014/2020 SCT050TCU PROB30 TEMPO 2014/2018 -SHRA

Weather observations and forecasts of more than 4000 airports (METAR and TAF reports).

The available stations are represented by yellow and red dots on the map.

Hover mouse over dot to see the name of the station.

Then click to see weather observations and forecasts.

To change the map : click on the green buttons with a black cross to zoom in, on the green button with a dash to zoom out, or on the green arrows for adjacent maps.


METAR-TAF: